Terminal Aerodrome Forecast
Issued by NWS Shreveport, LA

Home | Current Version | Previous Version | Text Only | Print | Product List | Glossary On
Versions: 1 2 3 4 5 6 7 8 9 10 11 12 13 14 15 16 17 18 19 20 21 22 23
000
FTUS44 KSHV 241149
TAFGGG
TAF
KGGG 241149Z 2412/2512 14010KT P6SM BKN015 BKN030 OVC100
     FM241400 17013G20KT 6SM -SHRA VCTS BKN015CB
     FM241600 17014G22KT 4SM -TSRA BR OVC020CB
     FM242200 16015G25KT P6SM VCTS OVC025CB
     FM250100 17012KT 5SM BR OVC015=

USA.gov is the U.S. government's official web portal to all federal, state and local government web resources and services.